Monday, September 01, 2014
21:10 UTC
  |  Log In   |  Register Free
Airport Search:

Orlando Sanford International Airport
(KSFB)

FAA data valid effective July 24, 2014 until September 18, 2014 (unless otherwise noted).

 
 
 
 
 
 
 
 
 
 
 
 
 
 

Current Aviation Weather for Orlando Sanford International Airport (KSFB)

The most recent METAR observation for KSFB was updated at: 1953 UTC
METAR Summary (Translated METAR)
KSFB
011953Z 11006KT 10SM CLR 33/22 A3005 RMK AO2 SLP176 T03330217
KORL
(14.8 nm SW from KSFB)
011953Z 05009KT 10SM SCT075 34/23 A3006 RMK AO2 RAB11E23 SLP180 P0000 T03440228
TAF Summary (Translated TAF)
KSFB
011746Z 0118/0218 12007KT P6SM VCSH SCT040 SCT070 FM020000 11005KT P6SM FEW040 SCT250 FM020200 00000KT P6SM FEW040
KMCO
(21.2 nm SW from KSFB)
011746Z 0118/0218 11008KT P6SM VCSH SCT040 SCT070 FM020000 11005KT P6SM FEW040 SCT250 FM020200 00000KT P6SM FEW040
  Airport Weather Conditions for KSFB

 Current Weather at SFB
92° F
A Few Clouds
East winds at 9.2 mph
SFB NOAA Radar

Pressure: 30.08 in
Humidity: 52%
Wind: East at 9.2 MPH (8 KT)
Dew Point: 72.0°F
Visibility: 10.00 mi


Airport Weather Forecast for KSFB

Translated METAR and TAF for KSFB
Translated METAR for KSFB (2104 UTC 01 September 2014)
found at http://aviationweather.gov/adds/metars/
 
METAR text: KSFB 012053Z 10008KT 10SM CLR 33/21 A3005 RMK AO2 SLP173 T03280211 56019
Conditions at: KSFB (SANFORD/ORLANDO , FL, US) observed 2053 UTC 01 September 2014
Temperature: 32.8°C (91°F)
Dewpoint: 21.1°C (70°F) [RH = 50%]
Pressure (altimeter): 30.05 inches Hg (1017.7 mb)
[Sea-level pressure: 1017.3 mb]
Winds: from the E (100 degrees) at 9 MPH (8 knots; 4.2 m/s)
Visibility: 10 or more miles (16+ km)
Ceiling: at least 12,000 feet AGL
Clouds: sky clear below 12,000 feet AGL
Weather: no significant weather observed at this time
Translated TAF for KSFB
Forecast for: KSFB (SANFORD/ORLANDO , FL, US)
TAF Text: KSFB 011746Z 0118/0218 12007KT P6SM VCSH SCT040 SCT070
Forecast period: 1800 UTC 01 September 2014 to 0000 UTC 02 September 2014
Forecast type: FROM: standard forecast or significant change
Winds: from the ESE (120 degrees) at 8 MPH (7 knots; 3.6 m/s)
Visibility: 6 or more miles (10+ km)
Clouds: scattered clouds at 4000 feet AGL
scattered clouds at 7000 feet AGL
Weather: VCSH  (showers in vicinity)
TAF Text: FM020000 11005KT P6SM FEW040 SCT250
Forecast period: 0000 to 0200 UTC 02 September 2014
Forecast type: FROM: standard forecast or significant change
Winds: from the ESE (110 degrees) at 6 MPH (5 knots; 2.6 m/s)
Visibility: 6 or more miles (10+ km)
Clouds: few clouds at 4000 feet AGL
scattered clouds at 25000 feet AGL
Weather: no significant weather forecast for this period
TAF Text: FM020200 00000KT P6SM FEW040
Forecast period: 0200 to 1800 UTC 02 September 2014
Forecast type: FROM: standard forecast or significant change
Winds: calm
Visibility: 6 or more miles (10+ km)
Clouds: few clouds at 4000 feet AGL
Weather: no significant weather forecast for this period

Find All Airport Services Find A Hotel Find A Rental Car Find A Golf Course Find A Restaurant $100 Hamburger



FBO's on the Field
FBO Company Facility Photos Services Transportation Aviation Fuel Prices: Prices include tax
Catering Weather Repair Courtesy Rental Type 100LL JetA JetA+ MOGAS 8087
 
StarPort

Currently rated 3.8 by 7 people
FS:
Last Updated: Aug-29
Login to update fuel prices
SS:
Contact StarPortMore FBO Information
 
Million Air

Currently rated 3.6 by 3 people
FS:Avfuel
Last Updated: Aug-25
Login to update fuel prices
SS:
Contact Million AirMore FBO Information
 
Add another FBO Facility Photos Catering Weather Repair Courtesy Rental Type 100LL JetA JetA+ MOGAS 8087
Services Transportation Aviation Fuel Prices: Prices include tax


GlobalAir.com Airport Resource Center model-print
model-print
model-print
model-print